Time;durP1;ratioP1;P1;durP2;ratioP2;P2;SDS_P1;SDS_P2;PMS_P1;PMS_P2;Temp;Humidity;BMP_temperature;BMP_pressure;BME280_temperature;BME280_humidity;BME280_pressure;Samples;Min_cycle;Max_cycle;Signal;HPM_P1;HPM_P2
2024/03/13 00:01:50;;;;;;;;;;;;;;;22.28;40.82;101330.84;4115884;28;19922;-61
2024/03/13 00:03:52;;;;;;;;;;;;;;;22.30;40.75;101331.59;4115882;28;19925;-62
2024/03/13 00:05:54;;;;;;;;;;;;;;;22.29;40.90;101341.44;4115557;28;20385;-63
2024/03/13 00:07:56;;;;;;;;;;;;;;;22.29;40.74;101337.91;4115196;28;20649;-62
2024/03/13 00:10:00;;;;;;;;;;;;;;;22.27;40.75;101338.03;4115474;28;20414;-62
2024/03/13 00:12:01;;;;;;;;;;;;;;;22.26;40.72;101330.09;4114384;28;19922;-63
2024/03/13 00:14:03;;;;;;;;;;;;;;;22.26;40.57;101338.13;4099426;28;20421;-63
2024/03/13 00:16:05;;;;;;;;;;;;;;;22.27;40.78;101342.53;4099667;28;20025;-62
2024/03/13 00:18:07;;;;;;;;;;;;;;;22.25;40.57;101336.44;4099830;28;19923;-62
2024/03/13 00:20:12;;;;;;;;;;;;;;;22.24;40.72;101337.41;4099316;28;19977;-62
2024/03/13 00:22:18;;;;;;;;;;;;;;;22.13;40.65;101320.31;4099590;28;19926;-63
2024/03/13 00:24:20;;;;;;;;;;;;;;;22.23;40.74;101339.22;4099710;28;20021;-62
2024/03/13 00:26:22;;;;;;;;;;;;;;;22.24;40.53;101334.75;4098206;29;19922;-62
2024/03/13 00:28:23;;;;;;;;;;;;;;;22.27;40.50;101342.53;4099199;28;19931;-62
2024/03/13 00:30:25;;;;;;;;;;;;;;;22.31;40.60;101334.16;4099460;28;19990;-62
2024/03/13 00:32:28;;;;;;;;;;;;;;;22.32;40.63;101340.34;4099194;28;19922;-63
2024/03/13 00:34:30;;;;;;;;;;;;;;;22.32;40.76;101345.72;4099472;28;20334;-62
2024/03/13 00:36:32;;;;;;;;;;;;;;;22.31;40.54;101339.50;4099092;28;19934;-62
2024/03/13 00:38:34;;;;;;;;;;;;;;;22.31;40.66;101338.66;4099332;29;19929;-62
2024/03/13 00:40:37;;;;;;;;;;;;;;;22.30;40.48;101337.78;4098028;29;20357;-62
2024/03/13 00:42:39;;;;;;;;;;;;;;;22.27;40.52;101342.53;4099033;28;19960;-61
2024/03/13 00:44:41;;;;;;;;;;;;;;;22.28;40.57;101338.88;4099114;28;19926;-62
2024/03/13 00:46:43;;;;;;;;;;;;;;;22.27;40.56;101338.03;4099192;28;20341;-62
2024/03/13 00:48:44;;;;;;;;;;;;;;;22.29;40.54;101332.56;4099287;28;19929;-62
2024/03/13 00:50:49;;;;;;;;;;;;;;;22.29;40.64;101340.59;4099205;28;20297;-62
2024/03/13 00:52:50;;;;;;;;;;;;;;;22.30;40.42;101348.50;4099082;29;19981;-62
2024/03/13 00:54:52;;;;;;;;;;;;;;;22.32;40.41;101349.25;4099213;28;20305;-62
2024/03/13 00:56:56;;;;;;;;;;;;;;;22.34;40.47;101341.09;4098429;28;20385;-60
2024/03/13 00:58:57;;;;;;;;;;;;;;;22.36;40.72;101340.97;4092808;28;20041;-61
2024/03/13 01:00:59;;;;;;;;;;;;;;;22.36;40.54;101340.97;4111253;28;19922;-61
2024/03/13 01:03:02;;;;;;;;;;;;;;;22.33;40.43;101342.94;4115076;28;19969;-61
2024/03/13 01:05:05;;;;;;;;;;;;;;;22.33;40.59;101350.09;4115120;28;19922;-62
2024/03/13 01:07:06;;;;;;;;;;;;;;;22.31;40.51;101352.91;4114788;28;19926;-62
2024/03/13 01:09:13;;;;;;;;;;;;;;;22.30;40.61;101350.34;4114932;28;20021;-62
2024/03/13 01:11:15;;;;;;;;;;;;;;;22.30;40.74;101348.50;4114518;28;19968;-62
2024/03/13 01:13:19;;;;;;;;;;;;;;;22.31;40.66;101349.38;4104653;28;19923;-62
2024/03/13 01:15:20;;;;;;;;;;;;;;;22.29;40.54;101352.16;4098959;28;19933;-62
2024/03/13 01:17:22;;;;;;;;;;;;;;;22.31;40.44;101362.78;4097716;29;20005;-62
2024/03/13 01:19:24;;;;;;;;;;;;;;;22.33;40.55;101347.44;4098945;28;19949;-62
2024/03/13 01:21:25;;;;;;;;;;;;;;;22.38;40.78;101353.31;4100650;28;19922;-62
2024/03/13 01:23:27;;;;;;;;;;;;;;;22.36;40.71;101354.38;4102420;28;19930;-62
2024/03/13 01:25:29;;;;;;;;;;;;;;;22.38;40.58;101360.47;4101838;28;19926;-62
2024/03/13 01:27:31;;;;;;;;;;;;;;;22.37;40.53;101354.28;4102006;28;20410;-61
2024/03/13 01:29:32;;;;;;;;;;;;;;;22.37;40.47;101350.72;4102221;28;19923;-62
2024/03/13 01:31:35;;;;;;;;;;;;;;;22.37;40.50;101354.28;4102039;28;19926;-61
2024/03/13 01:33:40;;;;;;;;;;;;;;;22.34;40.53;101349.13;4101707;28;20016;-61
2024/03/13 01:35:41;;;;;;;;;;;;;;;22.32;40.67;101351.94;4101015;29;19926;-61
2024/03/13 01:37:58;;;;;;;;;;;;;;;22.30;40.62;101348.50;4101798;28;19929;-62
2024/03/13 01:40:04;;;;;;;;;;;;;;;22.30;40.42;101345.84;4101619;28;20371;-62
2024/03/13 01:56:22;;;;;;;;;;;;;;;22.37;40.51;101353.41;4101265;28;19966;-63
2024/03/13 01:58:39;;;;;;;;;;;;;;;22.38;40.46;101347.09;4099386;28;20309;-61
2024/03/13 02:03:01;;;;;;;;;;;;;;;22.32;40.59;101349.25;4117504;28;20348;-63
2024/03/13 02:05:03;;;;;;;;;;;;;;;22.32;40.55;101345.72;4117682;28;19922;-63
2024/03/13 02:07:05;;;;;;;;;;;;;;;22.30;40.67;101331.59;4117702;28;19969;-62
2024/03/13 02:09:06;;;;;;;;;;;;;;;22.30;40.70;101340.47;4116634;28;19922;-61
2024/03/13 02:11:08;;;;;;;;;;;;;;;22.30;40.77;101345.00;4117324;28;19961;-61
2024/03/13 02:13:10;;;;;;;;;;;;;;;22.32;40.60;101340.34;4108162;28;19926;-63
2024/03/13 02:15:13;;;;;;;;;;;;;;;22.33;40.46;101342.06;4101597;29;19930;-60
2024/03/13 02:17:15;;;;;;;;;;;;;;;22.34;40.53;101331.22;4101603;29;20026;-61
2024/03/13 02:19:18;;;;;;;;;;;;;;;22.37;40.82;101334.66;4101125;28;19922;-62
2024/03/13 02:21:19;;;;;;;;;;;;;;;22.37;40.35;101334.66;4100047;29;19929;-62
2024/03/13 02:23:22;;;;;;;;;;;;;;;22.35;40.53;101340.13;4101081;28;20009;-62
2024/03/13 02:25:24;;;;;;;;;;;;;;;22.37;40.42;101334.66;4101174;29;19953;-61
2024/03/13 02:27:25;;;;;;;;;;;;;;;22.35;40.42;101334.78;4101142;28;19977;-61
2024/03/13 02:29:28;;;;;;;;;;;;;;;22.34;40.48;101328.53;4101345;29;19923;-61
2024/03/13 02:31:29;;;;;;;;;;;;;;;22.33;40.48;101326.00;4101013;28;19993;-61
2024/03/13 02:33:31;;;;;;;;;;;;;;;22.32;40.42;101329.63;4101114;28;19970;-62
2024/03/13 02:35:33;;;;;;;;;;;;;;;22.32;40.59;101338.53;4101230;28;20390;-61
2024/03/13 02:37:39;;;;;;;;;;;;;;;22.31;40.43;101330.63;4100989;28;19922;-61
2024/03/13 02:39:41;;;;;;;;;;;;;;;22.32;40.48;101326.94;4100603;28;19934;-60
2024/03/13 02:41:43;;;;;;;;;;;;;;;22.34;40.41;101331.22;4101215;28;19926;-61
2024/03/13 02:43:44;;;;;;;;;;;;;;;22.36;40.34;101327.56;4101055;28;19923;-62
2024/03/13 02:45:46;;;;;;;;;;;;;;;22.39;40.31;101328.22;4100657;28;19922;-61
2024/03/13 02:47:48;;;;;;;;;;;;;;;22.39;40.32;101330.91;4101019;28;19977;-61
2024/03/13 02:49:49;;;;;;;;;;;;;;;22.40;40.50;101332.63;4101078;28;20308;-61
2024/03/13 02:51:51;;;;;;;;;;;;;;;22.37;40.36;101330.16;4100884;28;20013;-61
2024/03/13 02:53:52;;;;;;;;;;;;;;;22.35;40.60;101326.72;4100630;28;19932;-61
2024/03/13 02:55:54;;;;;;;;;;;;;;;22.34;40.55;101323.19;4100890;28;19923;-61
2024/03/13 02:57:56;;;;;;;;;;;;;;;22.34;40.28;101319.66;4100379;28;19922;-61
2024/03/13 02:59:57;;;;;;;;;;;;;;;22.33;40.42;101318.81;4099346;28;20064;-59
2024/03/13 03:01:59;;;;;;;;;;;;;;;22.33;40.40;101324.19;4116749;28;20021;-60
2024/03/13 03:04:03;;;;;;;;;;;;;;;22.33;40.36;101321.50;4116739;28;19933;-60
2024/03/13 03:06:06;;;;;;;;;;;;;;;22.33;40.23;101320.63;4116865;28;19961;-61
2024/03/13 03:08:07;;;;;;;;;;;;;;;22.34;40.29;101325.03;4114958;28;19953;-60
2024/03/13 03:10:09;;;;;;;;;;;;;;;22.36;40.40;101328.44;4116342;28;19964;-60
2024/03/13 03:12:12;;;;;;;;;;;;;;;22.39;40.22;101324.72;4115519;28;19922;-63
2024/03/13 03:14:13;;;;;;;;;;;;;;;22.39;40.20;101330.06;4100289;29;19929;-63
2024/03/13 03:16:18;;;;;;;;;;;;;;;22.40;40.39;101326.41;4100505;29;19922;-61
2024/03/13 03:18:19;;;;;;;;;;;;;;;22.38;40.17;101331.88;4100294;28;19922;-61
2024/03/13 03:20:21;;;;;;;;;;;;;;;22.36;40.34;101335.63;4100499;28;20448;-60
2024/03/13 03:22:23;;;;;;;;;;;;;;;22.34;40.30;101325.88;4100014;28;19926;-61
2024/03/13 03:24:24;;;;;;;;;;;;;;;22.34;40.16;101333.06;4098878;29;19922;-61
2024/03/13 03:26:29;;;;;;;;;;;;;;;22.33;40.40;101331.34;4100491;28;19922;-60
2024/03/13 03:28:30;;;;;;;;;;;;;;;22.34;40.46;101335.75;4100401;28;19977;-61
2024/03/13 03:30:33;;;;;;;;;;;;;;;22.32;40.38;101346.59;4100385;28;19922;-60
2024/03/13 03:32:36;;;;;;;;;;;;;;;22.31;40.20;101339.50;4100240;28;20305;-61
2024/03/13 03:34:39;;;;;;;;;;;;;;;22.32;40.18;101337.66;4100208;28;19969;-61
2024/03/13 03:36:41;;;;;;;;;;;;;;;22.35;40.25;101334.78;4099888;28;19922;-61
2024/03/13 03:38:44;;;;;;;;;;;;;;;22.37;40.11;101338.19;4100113;28;20017;-62
2024/03/13 03:40:46;;;;;;;;;;;;;;;22.38;40.34;101337.25;4100260;28;19944;-61
2024/03/13 03:42:48;;;;;;;;;;;;;;;22.39;40.07;101340.78;4099841;28;19922;-61
2024/03/13 03:44:49;;;;;;;;;;;;;;;22.37;40.32;101334.66;4099198;29;19934;-61
2024/03/13 03:46:51;;;;;;;;;;;;;;;22.37;40.09;101334.66;4100178;29;19930;-61
2024/03/13 03:48:53;;;;;;;;;;;;;;;22.37;40.13;101345.38;4099943;28;20460;-61
2024/03/13 03:50:54;;;;;;;;;;;;;;;22.37;40.07;101342.69;4099681;28;19922;-62
2024/03/13 03:52:56;;;;;;;;;;;;;;;22.35;39.98;101340.13;4098802;29;20013;-62
2024/03/13 03:54:57;;;;;;;;;;;;;;;22.36;40.04;101336.50;4099848;28;20436;-61
2024/03/13 03:56:59;;;;;;;;;;;;;;;22.36;40.03;101347.22;4099621;28;19926;-62
2024/03/13 03:59:00;;;;;;;;;;;;;;;22.36;40.02;101343.66;4092879;28;19925;-62
2024/03/13 04:01:03;;;;;;;;;;;;;;;22.34;39.89;101349.97;4114059;28;20025;-61
2024/03/13 04:03:05;;;;;;;;;;;;;;;22.34;40.02;101343.78;4115688;28;19984;-61
2024/03/13 04:05:08;;;;;;;;;;;;;;;22.38;39.92;101344.41;4115416;28;19950;-61
2024/03/13 04:07:13;;;;;;;;;;;;;;;22.41;40.00;101346.91;4115936;28;19922;-61
2024/03/13 04:09:14;;;;;;;;;;;;;;;22.40;40.12;101343.34;4115371;28;20033;-61
2024/03/13 04:11:16;;;;;;;;;;;;;;;22.38;40.03;101341.72;4084074;29;19923;-61
2024/03/13 04:13:19;;;;;;;;;;;;;;;22.39;40.21;101343.47;4073645;29;19923;-61
2024/03/13 04:15:23;;;;;;;;;;;;;;;22.37;40.13;101346.25;4068056;29;20276;-61
2024/03/13 04:17:26;;;;;;;;;;;;;;;22.37;39.90;101340.88;4068234;29;20322;-61
2024/03/13 04:19:28;;;;;;;;;;;;;;;22.37;40.21;101340.88;4067767;29;19970;-61
2024/03/13 04:21:29;;;;;;;;;;;;;;;22.37;39.90;101340.00;4067726;29;19927;-62
2024/03/13 04:23:31;;;;;;;;;;;;;;;22.36;40.00;101336.50;4068047;29;19923;-61
2024/03/13 04:25:35;;;;;;;;;;;;;;;22.34;40.08;101341.94;4067685;29;19935;-61
2024/03/13 04:27:37;;;;;;;;;;;;;;;22.34;39.89;101343.78;4067883;29;19962;-60
2024/03/13 04:29:38;;;;;;;;;;;;;;;22.36;39.96;101346.34;4067561;29;19958;-60
2024/03/13 04:31:50;;;;;;;;;;;;;;;22.32;39.75;101326.94;4068108;29;19923;-60
2024/03/13 04:33:53;;;;;;;;;;;;;;;22.41;39.84;101344.22;4067609;29;19926;-61
2024/03/13 04:35:58;;;;;;;;;;;;;;;22.41;39.88;101344.22;4067452;29;19923;-60
2024/03/13 04:37:59;;;;;;;;;;;;;;;22.41;39.62;101334.34;4067729;29;20372;-61
2024/03/13 04:40:01;;;;;;;;;;;;;;;22.43;39.98;101339.56;4067658;29;20298;-61
2024/03/13 04:42:04;;;;;;;;;;;;;;;22.39;39.83;101347.00;4067889;29;19975;-61
2024/03/13 04:44:14;;;;;;;;;;;;;;;22.38;39.71;101353.31;4067916;29;20351;-60
2024/03/13 04:46:18;;;;;;;;;;;;;;;22.37;39.88;101353.41;4067529;29;19923;-61
2024/03/13 04:48:20;;;;;;;;;;;;;;;22.38;40.02;101355.13;4068024;29;19927;-61
2024/03/13 04:50:22;;;;;;;;;;;;;;;22.36;39.90;101346.34;4067141;29;20013;-60
2024/03/13 04:52:23;;;;;;;;;;;;;;;22.34;39.84;101349.97;4067943;29;19933;-61
2024/03/13 04:54:25;;;;;;;;;;;;;;;22.33;39.81;101355.47;4067680;29;19930;-61
2024/03/13 04:56:27;;;;;;;;;;;;;;;22.35;39.83;101356.22;4067495;29;20373;-61
2024/03/13 04:58:29;;;;;;;;;;;;;;;22.38;40.10;101356.00;4064865;29;21658;-62
2024/03/13 05:00:30;;;;;;;;;;;;;;;22.42;39.79;101357.50;4073161;29;19923;-62
2024/03/13 05:02:32;;;;;;;;;;;;;;;22.44;39.88;101355.56;4083262;29;19978;-62
2024/03/13 05:04:37;;;;;;;;;;;;;;;22.43;39.73;101361.00;4083284;29;19922;-62
2024/03/13 05:06:39;;;;;;;;;;;;;;;22.42;39.93;101356.63;4083040;29;19923;-62
2024/03/13 05:08:41;;;;;;;;;;;;;;;22.42;39.61;101349.44;4083182;29;19994;-62
2024/03/13 05:10:43;;;;;;;;;;;;;;;22.40;39.72;101356.75;4105572;28;20268;-62
2024/03/13 05:12:44;;;;;;;;;;;;;;;22.40;39.68;101350.53;4109432;28;19930;-62
2024/03/13 05:14:46;;;;;;;;;;;;;;;22.40;39.74;101353.22;4099170;28;20326;-62
2024/03/13 05:16:50;;;;;;;;;;;;;;;22.37;39.67;101354.28;4099041;29;20381;-62
2024/03/13 05:18:52;;;;;;;;;;;;;;;22.40;39.72;101355.91;4098858;29;20301;-62
2024/03/13 05:20:54;;;;;;;;;;;;;;;22.39;39.65;101351.50;4098763;28;20029;-62
2024/03/13 05:22:55;;;;;;;;;;;;;;;22.39;40.00;101351.50;4098958;28;19926;-62
2024/03/13 05:24:58;;;;;;;;;;;;;;;22.41;39.95;101353.09;4099298;28;19922;-62
2024/03/13 05:27:00;;;;;;;;;;;;;;;22.41;39.90;101345.06;4098848;28;19922;-62
2024/03/13 05:29:02;;;;;;;;;;;;;;;22.46;39.56;101355.44;4099021;28;19926;-62
2024/03/13 05:31:04;;;;;;;;;;;;;;;22.44;39.47;101347.53;4098846;29;19974;-62
2024/03/13 05:33:07;;;;;;;;;;;;;;;22.41;39.55;101350.41;4098489;28;19957;-62
2024/03/13 05:35:09;;;;;;;;;;;;;;;22.41;39.53;101355.78;4099139;28;20678;-63
2024/03/13 05:37:12;;;;;;;;;;;;;;;22.39;39.68;101352.34;4098801;28;19930;-62
2024/03/13 05:39:17;;;;;;;;;;;;;;;22.40;39.72;101358.59;4098841;28;19984;-63
2024/03/13 05:41:19;;;;;;;;;;;;;;;22.39;39.60;101356.88;4097557;29;19926;-62
2024/03/13 05:43:21;;;;;;;;;;;;;;;22.39;39.60;101355.03;4098880;28;19969;-62
2024/03/13 05:45:22;;;;;;;;;;;;;;;22.40;39.52;101367.47;4098643;28;19929;-63
2024/03/13 05:47:25;;;;;;;;;;;;;;;22.38;39.78;101361.34;4098755;28;19926;-62
2024/03/13 05:49:27;;;;;;;;;;;;;;;22.36;39.98;101365.97;4099054;28;19922;-61
2024/03/13 05:51:29;;;;;;;;;;;;;;;22.40;39.88;101369.31;4098862;28;19926;-62
2024/03/13 05:53:30;;;;;;;;;;;;;;;22.39;39.65;101368.44;4099012;28;19926;-62
2024/03/13 05:55:32;;;;;;;;;;;;;;;22.44;39.60;101368.97;4098769;28;19922;-62
2024/03/13 05:57:33;;;;;;;;;;;;;;;22.42;39.70;101362.84;4098343;28;19922;-61
2024/03/13 05:59:35;;;;;;;;;;;;;;;22.45;39.85;101370.66;4094248;28;19922;-60
2024/03/13 06:01:37;;;;;;;;;;;;;;;22.42;39.92;101368.22;4114457;28;19946;-61
2024/03/13 06:03:38;;;;;;;;;;;;;;;22.41;39.57;101362.97;4114803;28;20304;-62
2024/03/13 06:05:40;;;;;;;;;;;;;;;22.39;39.81;101371.09;4114795;28;19922;-61
2024/03/13 06:07:42;;;;;;;;;;;;;;;22.39;39.85;101364.91;4116717;28;20255;-62
2024/03/13 06:09:43;;;;;;;;;;;;;;;22.39;39.57;101360.38;4117111;28;20297;-62
2024/03/13 06:11:45;;;;;;;;;;;;;;;22.40;39.72;101362.09;4116347;28;20404;-62
2024/03/13 06:13:47;;;;;;;;;;;;;;;22.40;39.70;101371.97;4103483;28;19923;-62
2024/03/13 06:15:49;;;;;;;;;;;;;;;22.39;39.76;101372.94;4101160;29;19926;-63
2024/03/13 06:17:51;;;;;;;;;;;;;;;22.42;39.70;101372.69;4100198;29;20014;-62
2024/03/13 06:19:52;;;;;;;;;;;;;;;22.45;39.60;101378.69;4101262;28;19930;-61
2024/03/13 06:21:54;;;;;;;;;;;;;;;22.46;39.52;101380.41;4100906;28;20378;-62
2024/03/13 06:24:00;;;;;;;;;;;;;;;22.49;39.43;101382.00;4101573;28;19923;-62
2024/03/13 06:26:07;;;;;;;;;;;;;;;22.48;39.45;101383.81;4101447;28;20312;-63
2024/03/13 06:30:42;;;;;;;;;;;;;;;22.44;39.45;101379.69;4098959;29;19922;-61
2024/03/13 06:32:45;;;;;;;;;;;;;;;22.43;39.58;101385.13;4099051;29;19926;-62
2024/03/13 06:34:46;;;;;;;;;;;;;;;22.41;39.70;101393.31;4098960;29;19926;-62
2024/03/13 06:36:48;;;;;;;;;;;;;;;22.41;39.84;101390.63;4099243;29;19922;-63
2024/03/13 06:38:50;;;;;;;;;;;;;;;22.40;39.57;101382.72;4099223;29;20448;-62
2024/03/13 06:40:51;;;;;;;;;;;;;;;22.39;39.48;101378.31;4099189;29;20028;-62
2024/03/13 06:42:54;;;;;;;;;;;;;;;22.40;39.63;101388.06;4099082;29;19923;-62
2024/03/13 06:44:56;;;;;;;;;;;;;;;22.43;39.60;101395.84;4098940;29;20002;-62
2024/03/13 06:46:58;;;;;;;;;;;;;;;22.46;39.67;101387.59;4098593;29;20310;-62
2024/03/13 06:48:59;;;;;;;;;;;;;;;22.49;39.38;101395.41;4099105;29;19962;-62
2024/03/13 06:51:02;;;;;;;;;;;;;;;22.50;39.54;101399.78;4099131;29;19933;-62
2024/03/13 06:53:04;;;;;;;;;;;;;;;22.48;39.83;101399.91;4098914;29;19926;-62
2024/03/13 06:55:06;;;;;;;;;;;;;;;22.47;39.34;101402.72;4099100;29;19929;-62
2024/03/13 06:57:11;;;;;;;;;;;;;;;22.45;39.66;101402.81;4098594;29;19946;-62
2024/03/13 06:59:16;;;;;;;;;;;;;;;22.42;39.68;101397.69;4090437;29;19930;-62
2024/03/13 07:01:18;;;;;;;;;;;;;;;22.43;39.69;101402.09;4098818;29;20013;-61
2024/03/13 07:03:20;;;;;;;;;;;;;;;22.44;39.30;101403.81;4098378;29;19993;-61
2024/03/13 07:05:23;;;;;;;;;;;;;;;22.41;39.74;101397.81;4099075;29;19957;-61
2024/03/13 07:07:24;;;;;;;;;;;;;;;22.39;39.46;101397.91;4100168;29;19973;-61
2024/03/13 07:09:29;;;;;;;;;;;;;;;22.40;39.34;101405.00;4100243;28;19923;-62
2024/03/13 07:11:31;;;;;;;;;;;;;;;22.45;39.37;101408.16;4100934;28;19933;-61
2024/03/13 07:13:33;;;;;;;;;;;;;;;22.46;39.78;101403.69;4100057;28;19923;-62
2024/03/13 07:15:34;;;;;;;;;;;;;;;22.46;39.65;101403.69;4100676;28;19926;-61
2024/03/13 07:17:39;;;;;;;;;;;;;;;22.46;39.29;101407.19;4100460;28;19923;-61
2024/03/13 07:19:41;;;;;;;;;;;;;;;22.47;39.55;101406.25;4100581;29;19923;-61
2024/03/13 07:21:42;;;;;;;;;;;;;;;22.48;39.54;101402.59;4100143;29;19932;-61
2024/03/13 07:23:46;;;;;;;;;;;;;;;22.46;39.61;101406.38;4100009;28;20021;-62
2024/03/13 07:25:49;;;;;;;;;;;;;;;22.45;39.30;101405.50;4100557;29;19922;-61
2024/03/13 07:27:51;;;;;;;;;;;;;;;22.45;39.31;101410.00;4100421;28;20305;-61
2024/03/13 07:29:53;;;;;;;;;;;;;;;22.42;39.19;101403.06;4099981;29;19922;-61
2024/03/13 07:31:56;;;;;;;;;;;;;;;22.42;39.44;101407.53;4100346;28;20013;-61
2024/03/13 07:33:58;;;;;;;;;;;;;;;22.41;39.27;101411.22;4099601;28;19926;-62
2024/03/13 07:35:59;;;;;;;;;;;;;;;22.42;39.37;101413.78;4100281;28;19926;-62
2024/03/13 07:38:01;;;;;;;;;;;;;;;22.46;39.15;101415.25;4100050;28;19969;-61
2024/03/13 07:40:05;;;;;;;;;;;;;;;22.48;39.27;101417.84;4100359;28;20488;-60
2024/03/13 07:42:07;;;;;;;;;;;;;;;22.48;39.46;101407.94;4100148;28;19926;-60
2024/03/13 07:44:08;;;;;;;;;;;;;;;22.49;39.35;101417.72;4099518;28;19985;-59
2024/03/13 07:46:11;;;;;;;;;;;;;;;22.50;39.21;101415.88;4100005;28;19929;-62
2024/03/13 07:48:12;;;;;;;;;;;;;;;22.49;39.33;101422.19;4100048;28;19926;-62
2024/03/13 07:50:14;;;;;;;;;;;;;;;22.46;39.25;101417.94;4100078;28;19930;-63
2024/03/13 07:52:16;;;;;;;;;;;;;;;22.46;39.50;101417.94;4099029;29;20021;-62
2024/03/13 07:54:18;;;;;;;;;;;;;;;22.45;39.53;101416.22;4099874;28;19932;-62
2024/03/13 07:56:20;;;;;;;;;;;;;;;22.41;39.20;101412.06;4100095;28;19922;-60
2024/03/13 07:58:21;;;;;;;;;;;;;;;22.41;39.58;101421.94;4097467;28;19954;-61
2024/03/13 08:00:23;;;;;;;;;;;;;;;22.39;39.26;101422.03;4103678;28;19926;-60
2024/03/13 08:02:24;;;;;;;;;;;;;;;22.40;39.59;101420.22;4115829;28;19933;-62
2024/03/13 08:04:26;;;;;;;;;;;;;;;22.42;39.55;101423.63;4115649;28;19937;-60
2024/03/13 08:06:28;;;;;;;;;;;;;;;22.46;39.12;101419.75;4115798;28;19922;-61
2024/03/13 08:08:47;;;;;;;;;;;;;;;22.50;39.25;101418.56;4115512;28;19922;-60
2024/03/13 08:11:06;;;;;;;;;;;;;;;22.51;39.16;101420.25;4115087;28;19929;-64
2024/03/13 08:13:25;;;;;;;;;;;;;;;22.51;39.42;101425.63;4104021;28;19957;-60
2024/03/13 08:15:44;;;;;;;;;;;;;;;22.51;39.00;101419.44;4099785;28;20445;-60
2024/03/13 08:18:04;;;;;;;;;;;;;;;22.51;39.29;101422.09;4099769;28;19946;-61
2024/03/13 08:20:27;;;;;;;;;;;;;;;22.49;39.07;101420.38;4099722;28;19922;-62
2024/03/13 08:22:46;;;;;;;;;;;;;;;22.48;39.17;101425.88;4099437;28;20412;-60
2024/03/13 08:25:08;;;;;;;;;;;;;;;22.46;39.48;101434.00;4099334;28;19954;-60
2024/03/13 08:27:27;;;;;;;;;;;;;;;22.47;39.33;101429.53;4099264;28;19922;-61
2024/03/13 08:29:46;;;;;;;;;;;;;;;22.45;39.04;101434.13;4099165;28;20422;-61
2024/03/13 08:32:06;;;;;;;;;;;;;;;22.52;39.39;101437.19;4099515;28;19974;-60
2024/03/13 08:34:25;;;;;;;;;;;;;;;22.51;39.22;101435.50;4099175;28;19981;-60
2024/03/13 08:36:44;;;;;;;;;;;;;;;22.53;39.18;101437.09;4099447;28;19978;-61
2024/03/13 08:39:03;;;;;;;;;;;;;;;22.54;39.25;101436.13;4099308;28;20029;-61
2024/03/13 08:41:22;;;;;;;;;;;;;;;22.55;39.15;101442.34;4098000;29;20017;-60
2024/03/13 08:43:41;;;;;;;;;;;;;;;22.53;39.13;101446.94;4099401;28;19930;-61
2024/03/13 08:46:00;;;;;;;;;;;;;;;22.52;39.21;101446.09;4099057;28;19936;-62
2024/03/13 08:48:19;;;;;;;;;;;;;;;22.53;38.96;101455.00;4099464;28;20369;-60
2024/03/13 08:50:40;;;;;;;;;;;;;;;22.53;38.94;101458.53;4099004;28;19922;-61
2024/03/13 08:53:00;;;;;;;;;;;;;;;22.54;38.99;101464.75;4099306;28;19930;-62
2024/03/13 08:55:19;;;;;;;;;;;;;;;22.51;38.84;101457.78;4099067;28;19929;-61
2024/03/13 08:57:39;;;;;;;;;;;;;;;22.51;38.89;101463.16;4099290;28;20355;-61
2024/03/13 08:59:57;;;;;;;;;;;;;;;22.54;39.31;101459.38;4097525;28;19925;-61
2024/03/13 09:02:16;;;;;;;;;;;;;;;22.55;39.11;101463.78;4115316;28;19976;-61
2024/03/13 09:04:36;;;;;;;;;;;;;;;22.55;39.05;101459.25;4115050;28;19948;-60
2024/03/13 09:06:55;;;;;;;;;;;;;;;22.55;38.86;101466.47;4115206;28;19930;-61
2024/03/13 09:08:58;;;;;;;;;;;;;;;22.57;38.87;101472.56;4108578;28;19988;-61
2024/03/13 09:10:59;;;;;;;;;;;;;;;22.56;39.12;101462.81;4098301;28;19922;-61
2024/03/13 09:13:03;;;;;;;;;;;;;;;22.57;39.21;101460.00;4099196;28;19926;-61
2024/03/13 09:15:05;;;;;;;;;;;;;;;22.56;38.89;101463.66;4099209;29;19932;-60
2024/03/13 09:17:08;;;;;;;;;;;;;;;22.55;39.01;101470.00;4102041;28;20452;-59
2024/03/13 09:19:15;;;;;;;;;;;;;;;22.55;39.00;101466.47;4099298;28;19927;-60
2024/03/13 09:21:16;;;;;;;;;;;;;;;22.55;38.80;101461.94;4098012;29;20043;-59
2024/03/13 09:23:18;;;;;;;;;;;;;;;22.57;39.02;101460.00;4098811;28;19922;-59
2024/03/13 09:25:20;;;;;;;;;;;;;;;22.60;38.67;101459.78;4098842;28;19923;-60
2024/03/13 09:27:21;;;;;;;;;;;;;;;22.59;38.86;101463.44;4100006;28;19922;-59
2024/03/13 09:29:23;;;;;;;;;;;;;;;22.59;38.84;101460.75;4106403;28;19922;-60
2024/03/13 09:31:25;;;;;;;;;;;;;;;22.61;38.64;101460.63;4106687;28;20408;-61
2024/03/13 09:33:26;;;;;;;;;;;;;;;22.60;39.08;101454.44;4106573;28;19970;-60
2024/03/13 09:35:28;;;;;;;;;;;;;;;22.61;38.59;101448.09;4103889;28;19926;-58
2024/03/13 09:37:33;;;;;;;;;;;;;;;22.62;38.56;101448.94;4106491;28;20024;-61
2024/03/13 09:39:35;;;;;;;;;;;;;;;22.62;38.52;101459.69;4106315;28;20012;-62
2024/03/13 09:41:37;;;;;;;;;;;;;;;22.61;38.53;101458.84;4107418;28;20365;-61
2024/03/13 09:43:39;;;;;;;;;;;;;;;22.62;38.55;101460.50;4109765;28;19922;-61
2024/03/13 09:45:44;;;;;;;;;;;;;;;22.63;38.40;101445.31;4109708;28;19922;-61
2024/03/13 09:47:46;;;;;;;;;;;;;;;22.63;38.30;101450.66;4109247;28;20020;-61
2024/03/13 09:49:48;;;;;;;;;;;;;;;22.63;38.58;101459.56;4107170;28;20034;-62
2024/03/13 09:51:54;;;;;;;;;;;;;;;22.64;38.39;101447.84;4109540;28;20002;-62
2024/03/13 09:53:56;;;;;;;;;;;;;;;22.64;38.50;101450.53;4109151;28;20320;-63
2024/03/13 09:55:58;;;;;;;;;;;;;;;22.64;38.60;101458.59;4109569;28;19922;-61
2024/03/13 09:58:02;;;;;;;;;;;;;;;22.64;38.85;101453.22;4109399;28;19984;-61
2024/03/13 10:00:05;;;;;;;;;;;;;;;22.67;39.00;101453.97;4109414;28;20329;-61
2024/03/13 10:02:14;;;;;;;;;;;;;;;22.69;39.03;101452.03;4106978;28;19930;-62
2024/03/13 10:04:26;;;;;;;;;;;;;;;22.70;39.21;101456.41;4109291;28;19922;-62
2024/03/13 10:06:32;;;;;;;;;;;;;;;22.70;39.23;101449.22;4106833;28;19985;-61
2024/03/13 10:08:35;;;;;;;;;;;;;;;22.71;38.94;101458.13;4108883;28;19965;-61
2024/03/13 10:10:38;;;;;;;;;;;;;;;22.70;39.06;101453.72;4108927;28;20358;-60
2024/03/13 10:12:43;;;;;;;;;;;;;;;22.73;38.72;101453.50;4109129;28;20381;-61
2024/03/13 10:14:45;;;;;;;;;;;;;;;22.73;38.87;101458.88;4105914;28;19922;-61
2024/03/13 10:16:51;;;;;;;;;;;;;;;22.74;38.84;101456.06;4105826;28;19972;-61
2024/03/13 10:19:01;;;;;;;;;;;;;;;22.72;38.68;101449.94;4108615;28;19971;-61
2024/03/13 10:21:08;;;;;;;;;;;;;;;22.70;38.89;101454.59;4108861;28;19930;-61
2024/03/13 10:23:12;;;;;;;;;;;;;;;22.70;39.04;101464.44;4104539;28;19934;-61
2024/03/13 10:25:19;;;;;;;;;;;;;;;22.71;38.85;101453.63;4108953;28;19926;-63
2024/03/13 10:27:22;;;;;;;;;;;;;;;22.73;38.80;101453.50;4109089;28;20367;-62
2024/03/13 10:29:24;;;;;;;;;;;;;;;22.72;38.86;101455.31;4107851;28;19922;-62
2024/03/13 10:31:27;;;;;;;;;;;;;;;22.72;38.75;101449.09;4108954;28;19926;-64
2024/03/13 10:33:29;;;;;;;;;;;;;;;22.71;38.49;101450.06;4106098;28;19969;-64
2024/03/13 10:35:31;;;;;;;;;;;;;;;22.72;38.60;101449.94;4106547;28;20020;-63
2024/03/13 10:37:32;;;;;;;;;;;;;;;22.72;38.59;101449.94;4108237;28;19926;-62
2024/03/13 10:39:35;;;;;;;;;;;;;;;22.72;38.50;101443.75;4108848;28;19929;-63
2024/03/13 10:41:37;;;;;;;;;;;;;;;22.69;38.50;101447.53;4108775;28;20001;-63
2024/03/13 10:43:41;;;;;;;;;;;;;;;22.70;38.25;101448.34;4108769;28;19922;-64
2024/03/13 10:45:47;;;;;;;;;;;;;;;22.72;38.30;101449.09;4108796;28;19922;-62
2024/03/13 10:47:51;;;;;;;;;;;;;;;22.71;38.31;101442.91;4105802;28;20301;-63
2024/03/13 10:49:57;;;;;;;;;;;;;;;22.72;38.29;101441.91;4105611;28;19921;-61
2024/03/13 10:52:01;;;;;;;;;;;;;;;22.71;38.43;101440.22;4108097;28;19961;-63
2024/03/13 10:54:04;;;;;;;;;;;;;;;22.72;38.08;101441.91;4108439;28;20354;-63
2024/03/13 10:56:11;;;;;;;;;;;;;;;22.74;38.34;101433.78;4108404;28;20413;-63